Time,TemperatureF,DewpointF,PressureIn,WindDirection,WindDirectionDegrees,WindSpeedMPH,WindSpeedGustMPH,Humidity,HourlyPrecipIn,Conditions,Clouds,dailyrainin,SoftwareType,DateUTC
2013-02-12 00:02:00,39.9,24.0,29.97,NNW,336,30.0,-999.0,53,-99.99,,,0.00,weatherlink.com 1.10,2013-02-12 05:02:00,
2013-02-12 00:17:00,39.5,24.0,29.97,WNW,292,17.0,-999.0,54,-99.99,,,0.00,weatherlink.com 1.10,2013-02-12 05:17:00,
2013-02-12 00:32:00,39.1,24.0,29.96,NNW,332,20.0,-999.0,54,-99.99,,,0.00,weatherlink.com 1.10,2013-02-12 05:32:00,
2013-02-12 00:47:00,38.8,24.0,29.95,NNW,335,26.0,-999.0,55,-99.99,,,0.00,weatherlink.com 1.10,2013-02-12 05:47:00,
2013-02-12 01:02:00,38.3,24.0,29.94,NW,318,24.0,-999.0,56,-99.99,,,0.00,weatherlink.com 1.10,2013-02-12 06:02:00,
2013-02-12 01:17:00,37.8,23.0,29.95,WNW,296,22.0,-999.0,55,-99.99,,,0.00,weatherlink.com 1.10,2013-02-12 06:17:00,
2013-02-12 01:32:00,37.2,22.0,29.94,NNW,331,12.0,-999.0,55,-99.99,,,0.00,weatherlink.com 1.10,2013-02-12 06:32:00,
2013-02-12 01:47:00,36.7,23.0,29.94,NNW,338,29.0,-999.0,57,-99.99,,,0.00,weatherlink.com 1.10,2013-02-12 06:47:00,
2013-02-12 02:02:00,36.2,23.0,29.96,NW,326,20.0,-999.0,58,-99.99,,,0.00,weatherlink.com 1.10,2013-02-12 07:02:00,
2013-02-12 02:18:00,36.2,20.0,29.97,North,350,35.0,-999.0,53,-99.99,,,0.00,weatherlink.com 1.10,2013-02-12 07:18:00,
2013-02-12 02:32:00,36.0,19.0,29.96,NW,311,17.0,-999.0,51,-99.99,,,0.00,weatherlink.com 1.10,2013-02-12 07:32:00,
2013-02-12 02:47:00,35.4,21.0,29.97,North,360,44.0,-999.0,55,-99.99,,,0.00,weatherlink.com 1.10,2013-02-12 07:47:00,
2013-02-12 03:02:00,34.8,21.0,29.98,NW,308,31.0,-999.0,57,-99.99,,,0.00,weatherlink.com 1.10,2013-02-12 08:02:00,
2013-02-12 03:17:00,34.5,20.0,29.97,North,360,38.0,-999.0,56,-99.99,,,0.00,weatherlink.com 1.10,2013-02-12 08:17:00,
2013-02-12 03:32:00,34.1,21.0,29.97,NNW,331,25.0,-999.0,58,-99.99,,,0.00,weatherlink.com 1.10,2013-02-12 08:32:00,
2013-02-12 03:47:00,33.8,21.0,29.96,NNW,333,32.0,-999.0,59,-99.99,,,0.00,weatherlink.com 1.10,2013-02-12 08:47:00,
2013-02-12 04:02:00,33.8,21.0,29.97,NW,325,18.0,-999.0,60,-99.99,,,0.00,weatherlink.com 1.10,2013-02-12 09:02:00,
2013-02-12 04:17:00,33.7,21.0,29.97,North,5,25.0,-999.0,59,-99.99,,,0.00,weatherlink.com 1.10,2013-02-12 09:17:00,
2013-02-12 04:32:00,33.5,21.0,29.98,NNW,333,29.0,-999.0,60,-99.99,,,0.00,weatherlink.com 1.10,2013-02-12 09:32:00,
2013-02-12 04:47:00,33.2,21.0,29.97,NNW,344,33.0,-999.0,62,-99.99,,,0.00,weatherlink.com 1.10,2013-02-12 09:47:00,
2013-02-12 05:02:00,33.0,21.0,29.96,NNW,336,19.0,-999.0,62,-99.99,,,0.00,weatherlink.com 1.10,2013-02-12 10:02:00,
2013-02-12 05:17:00,32.9,21.0,29.97,NW,319,33.0,-999.0,63,-99.99,,,0.00,weatherlink.com 1.10,2013-02-12 10:17:00,
2013-02-12 05:32:00,32.7,21.0,29.98,NW,318,31.0,-999.0,63,-99.99,,,0.00,weatherlink.com 1.10,2013-02-12 10:32:00,
2013-02-12 05:47:00,32.6,22.0,29.98,North,360,19.0,-999.0,64,-99.99,,,0.00,weatherlink.com 1.10,2013-02-12 10:47:00,
2013-02-12 06:02:00,32.4,22.0,29.98,NW,316,30.0,-999.0,65,-99.99,,,0.00,weatherlink.com 1.10,2013-02-12 11:02:00,
2013-02-12 06:17:00,32.2,22.0,29.97,NW,310,28.0,-999.0,66,-99.99,,,0.00,weatherlink.com 1.10,2013-02-12 11:17:00,
2013-02-12 06:32:00,32.1,22.0,29.98,NW,321,31.0,-999.0,66,-99.99,,,0.00,weatherlink.com 1.10,2013-02-12 11:32:00,
2013-02-12 06:47:00,32.0,22.0,29.98,NNW,338,24.0,-999.0,66,-99.99,,,0.00,weatherlink.com 1.10,2013-02-12 11:47:00,
2013-02-12 07:02:00,31.9,22.0,29.99,NW,322,20.0,-999.0,67,-99.99,,,0.00,weatherlink.com 1.10,2013-02-12 12:02:00,
2013-02-12 07:17:00,31.9,22.0,30.01,NNW,335,18.0,-999.0,67,-99.99,,,0.00,weatherlink.com 1.10,2013-02-12 12:17:00,
2013-02-12 07:32:00,31.7,22.0,30.01,NW,315,16.0,-999.0,67,-99.99,,,0.00,weatherlink.com 1.10,2013-02-12 12:32:00,
2013-02-12 07:47:00,31.6,22.0,30.01,WNW,300,22.0,-999.0,67,-99.99,,,0.00,weatherlink.com 1.10,2013-02-12 12:47:00,
2013-02-12 08:02:00,31.7,22.0,30.03,NW,313,29.0,-999.0,67,-99.99,,,0.00,weatherlink.com 1.10,2013-02-12 13:02:00,
2013-02-12 08:17:00,31.6,22.0,30.02,NW,321,35.0,-999.0,67,-99.99,,,0.00,weatherlink.com 1.10,2013-02-12 13:17:00,
2013-02-12 08:32:00,31.8,22.0,30.03,NNW,335,26.0,-999.0,66,-99.99,,,0.00,weatherlink.com 1.10,2013-02-12 13:32:00,
2013-02-12 08:47:00,31.8,22.0,30.04,NW,325,17.0,-999.0,66,-99.99,,,0.00,weatherlink.com 1.10,2013-02-12 13:47:00,
2013-02-12 09:02:00,31.8,22.0,30.05,North,355,16.0,-999.0,66,-99.99,,,0.00,weatherlink.com 1.10,2013-02-12 14:02:00,
2013-02-12 09:17:00,32.8,22.0,30.06,NNW,328,17.0,-999.0,64,-99.99,,,0.00,weatherlink.com 1.10,2013-02-12 14:17:00,
2013-02-12 09:32:00,33.5,22.0,30.09,NW,323,12.0,-999.0,62,-99.99,,,0.00,weatherlink.com 1.10,2013-02-12 14:32:00,
2013-02-12 09:47:00,33.7,21.0,30.08,NW,325,14.0,-999.0,61,-99.99,,,0.00,weatherlink.com 1.10,2013-02-12 14:47:00,
2013-02-12 10:02:00,34.3,20.0,30.08,West,259,18.0,-999.0,57,-99.99,,,0.00,weatherlink.com 1.10,2013-02-12 15:02:00,
2013-02-12 10:17:00,34.7,20.0,30.09,NNE,12,4.0,-999.0,56,-99.99,,,0.00,weatherlink.com 1.10,2013-02-12 15:17:00,
2013-02-12 10:32:00,35.3,20.0,30.11,NW,321,8.0,-999.0,55,-99.99,,,0.00,weatherlink.com 1.10,2013-02-12 15:32:00,
2013-02-12 10:47:00,36.3,20.0,30.10,North,5,7.0,-999.0,53,-99.99,,,0.00,weatherlink.com 1.10,2013-02-12 15:47:00,
2013-02-12 11:02:00,37.2,20.0,30.09,WNW,292,14.0,-999.0,50,-99.99,,,0.00,weatherlink.com 1.10,2013-02-12 16:02:00,
2013-02-12 11:17:00,38.7,20.0,30.09,NNW,346,6.0,-999.0,48,-99.99,,,0.00,weatherlink.com 1.10,2013-02-12 16:17:00,
2013-02-12 11:32:00,39.9,21.0,30.09,North,9,5.0,-999.0,47,-99.99,,,0.00,weatherlink.com 1.10,2013-02-12 16:32:00,
2013-02-12 11:47:00,41.3,21.0,30.07,West,281,3.0,-999.0,44,-99.99,,,0.00,weatherlink.com 1.10,2013-02-12 16:47:00,
2013-02-12 12:02:00,41.3,18.0,30.06,WNW,289,8.0,-999.0,39,-99.99,,,0.00,weatherlink.com 1.10,2013-02-12 17:02:00,
2013-02-12 12:17:00,41.9,19.0,30.08,WNW,299,10.0,-999.0,40,-99.99,,,0.00,weatherlink.com 1.10,2013-02-12 17:17:00,
2013-02-12 12:32:00,42.5,16.0,30.08,WNW,286,12.0,-999.0,34,-99.99,,,0.00,weatherlink.com 1.10,2013-02-12 17:32:00,
2013-02-12 12:47:00,44.1,18.0,30.08,West,274,9.0,-999.0,35,-99.99,,,0.00,weatherlink.com 1.10,2013-02-12 17:47:00,
2013-02-12 13:02:00,45.3,20.0,30.08,South,188,11.0,-999.0,36,-99.99,,,0.00,weatherlink.com 1.10,2013-02-12 18:02:00,
2013-02-12 13:17:00,45.4,20.0,30.08,WSW,244,6.0,-999.0,36,-99.99,,,0.00,weatherlink.com 1.10,2013-02-12 18:17:00,
2013-02-12 13:32:00,45.4,20.0,30.08,West,277,6.0,-999.0,36,-99.99,,,0.00,weatherlink.com 1.10,2013-02-12 18:32:00,
2013-02-12 13:47:00,45.0,21.0,30.07,WNW,301,5.0,-999.0,38,-99.99,,,0.00,weatherlink.com 1.10,2013-02-12 18:47:00,
2013-02-12 14:02:00,46.2,18.0,30.07,NNE,28,4.0,-999.0,33,-99.99,,,0.00,weatherlink.com 1.10,2013-02-12 19:02:00,
2013-02-12 14:17:00,45.8,13.0,30.07,NW,315,6.0,-999.0,26,-99.99,,,0.00,weatherlink.com 1.10,2013-02-12 19:17:00,
2013-02-12 14:32:00,45.8,12.0,30.08,NNW,333,5.0,-999.0,25,-99.99,,,0.00,weatherlink.com 1.10,2013-02-12 19:32:00,
2013-02-12 14:47:00,45.5,11.0,30.06,NW,314,5.0,-999.0,25,-99.99,,,0.00,weatherlink.com 1.10,2013-02-12 19:47:00,
2013-02-12 15:02:00,45.0,8.0,30.05,NW,322,7.0,-999.0,22,-99.99,,,0.00,weatherlink.com 1.10,2013-02-12 20:02:00,
2013-02-12 15:17:00,45.0,9.0,30.05,North,360,5.0,-999.0,23,-99.99,,,0.00,weatherlink.com 1.10,2013-02-12 20:17:00,
2013-02-12 15:32:00,44.8,8.0,30.08,NNW,330,5.0,-999.0,22,-99.99,,,0.00,weatherlink.com 1.10,2013-02-12 20:32:00,
2013-02-12 15:47:00,44.7,10.0,30.08,WNW,298,6.0,-999.0,24,-99.99,,,0.00,weatherlink.com 1.10,2013-02-12 20:47:00,
2013-02-12 16:02:00,44.3,19.0,30.07,NW,309,4.0,-999.0,37,-99.99,,,0.00,weatherlink.com 1.10,2013-02-12 21:02:00,
2013-02-12 16:17:00,44.0,12.0,30.07,NNW,348,3.0,-999.0,27,-99.99,,,0.00,weatherlink.com 1.10,2013-02-12 21:17:00,
2013-02-12 16:32:00,43.4,10.0,30.06,North,350,5.0,-999.0,25,-99.99,,,0.00,weatherlink.com 1.10,2013-02-12 21:32:00,
2013-02-12 16:47:00,43.0,10.0,30.04,North,349,3.0,-999.0,26,-99.99,,,0.00,weatherlink.com 1.10,2013-02-12 21:47:00,
2013-02-12 17:02:00,42.7,11.0,30.07,NNE,18,4.0,-999.0,27,-99.99,,,0.00,weatherlink.com 1.10,2013-02-12 22:02:00,
2013-02-12 17:17:00,42.2,13.0,30.05,North,355,5.0,-999.0,30,-99.99,,,0.00,weatherlink.com 1.10,2013-02-12 22:17:00,
2013-02-12 17:32:00,41.9,13.0,30.08,NW,312,6.0,-999.0,31,-99.99,,,0.00,weatherlink.com 1.10,2013-02-12 22:32:00,
2013-02-12 17:47:00,41.5,14.0,30.05,North,355,2.0,-999.0,33,-99.99,,,0.00,weatherlink.com 1.10,2013-02-12 22:47:00,
2013-02-12 18:02:00,41.1,15.0,30.04,NNE,17,3.0,-999.0,34,-99.99,,,0.00,weatherlink.com 1.10,2013-02-12 23:02:00,
2013-02-12 18:17:00,41.0,15.0,30.04,NNE,21,6.0,-999.0,35,-99.99,,,0.00,weatherlink.com 1.10,2013-02-12 23:17:00,
2013-02-12 18:32:00,41.2,13.0,30.00,NE,35,7.0,-999.0,32,-99.99,,,0.00,weatherlink.com 1.10,2013-02-12 23:32:00,
2013-02-12 18:47:00,41.3,12.0,30.00,North,5,8.0,-999.0,30,-99.99,,,0.00,weatherlink.com 1.10,2013-02-12 23:47:00,
2013-02-12 19:02:00,41.0,12.0,29.99,North,9,7.0,-999.0,31,-99.99,,,0.00,weatherlink.com 1.10,2013-02-13 00:02:00,
2013-02-12 19:17:00,41.2,13.0,29.99,NNE,30,7.0,-999.0,32,-99.99,,,0.00,weatherlink.com 1.10,2013-02-13 00:17:00,
2013-02-12 19:32:00,41.5,13.0,30.01,NNE,20,5.0,-999.0,31,-99.99,,,0.00,weatherlink.com 1.10,2013-02-13 00:32:00,
2013-02-12 19:47:00,41.6,11.0,30.03,NNE,33,1.0,-999.0,29,-99.99,,,0.00,weatherlink.com 1.10,2013-02-13 00:47:00,
2013-02-12 20:02:00,41.9,9.0,30.04,East,98,0.0,-999.0,26,-99.99,,,0.00,weatherlink.com 1.10,2013-02-13 01:02:00,
2013-02-12 20:17:00,42.3,10.0,30.06,SW,216,2.0,-999.0,27,-99.99,,,0.00,weatherlink.com 1.10,2013-02-13 01:17:00,
2013-02-12 20:32:00,42.3,18.0,30.06,SSE,152,4.0,-999.0,38,-99.99,,,0.00,weatherlink.com 1.10,2013-02-13 01:32:00,
2013-02-12 20:47:00,40.7,26.0,30.05,NW,315,5.0,-999.0,57,-99.99,,,0.00,weatherlink.com 1.10,2013-02-13 01:47:00,
2013-02-12 21:02:00,38.7,29.0,30.07,NW,319,4.0,-999.0,68,-99.99,,,0.00,weatherlink.com 1.10,2013-02-13 02:02:00,
2013-02-12 21:17:00,37.0,28.0,30.04,WNW,286,9.0,-999.0,70,-99.99,,,0.00,weatherlink.com 1.10,2013-02-13 02:17:00,
2013-02-12 21:32:00,34.8,31.0,30.02,NNW,346,0.0,-999.0,86,-99.99,,,0.00,weatherlink.com 1.10,2013-02-13 02:32:00,
2013-02-12 21:47:00,34.1,32.0,30.03,SW,231,3.0,-999.0,90,-99.99,,,0.00,weatherlink.com 1.10,2013-02-13 02:47:00,
2013-02-12 22:02:00,33.6,31.0,30.02,SW,233,3.0,-999.0,90,-99.99,,,0.00,weatherlink.com 1.10,2013-02-13 03:02:00,
2013-02-12 22:17:00,33.0,31.0,30.03,SW,233,3.0,-999.0,92,-99.99,,,0.00,weatherlink.com 1.10,2013-02-13 03:17:00,
2013-02-12 22:32:00,32.9,31.0,30.02,SW,233,3.0,-999.0,93,-99.99,,,0.00,weatherlink.com 1.10,2013-02-13 03:32:00,
2013-02-12 22:47:00,32.9,31.0,30.02,SW,235,2.0,-999.0,93,-99.99,,,0.00,weatherlink.com 1.10,2013-02-13 03:47:00,
2013-02-12 23:02:00,33.0,31.0,30.01,SW,235,0.0,-999.0,93,-99.99,,,0.00,weatherlink.com 1.10,2013-02-13 04:02:00,
2013-02-12 23:17:00,32.9,31.0,29.98,SW,235,0.0,-999.0,94,-99.99,,,0.00,weatherlink.com 1.10,2013-02-13 04:17:00,
2013-02-12 23:32:00,32.8,31.0,29.98,SW,235,2.0,-999.0,94,-99.99,,,0.00,weatherlink.com 1.10,2013-02-13 04:32:00,
2013-02-12 23:47:00,32.9,31.0,29.98,SW,235,0.0,-999.0,94,-99.99,,,0.00,weatherlink.com 1.10,2013-02-13 04:47:00,